New London, Texas
Current Conditions -  °F | °C
As of 3:15 AM on Sunday 21 Dec 2014 (Local Time) from KRFI Reporting Station
Haze Haze  
Wind Chill: 38°   Ceiling: 4000
Heat Index: 38°   Visibility: 5mi
Dew Point: 38°   Wind: 0mph
Humidity: 100%   Direction: NA
Pressure: 30.18"   Gusts: NA
Location:  32.24°N, 94.94°W
Report Text: KRFI 210915Z AUTO 00000KT 5SM BR OVC040 03/03 A3018 RMK AO2 T00340034
Loading
Personal Weather Stations






























Interactive Weather Map New forecast layout! Learn more

10-Day Weather Forecast

Advertisements
Track Severe Weather on mobile